createdAt,value
2023-09-02T00:02:37.543Z,1999.9
2023-09-02T00:06:45.088Z,1999.9
2023-09-02T00:10:52.701Z,1999.9
2023-09-02T00:15:03.613Z,1999.9
2023-09-02T00:17:07.405Z,1999.9
2023-09-02T00:19:11.234Z,1999.9
2023-09-02T00:22:18.620Z,1999.9
2023-09-02T00:24:22.403Z,1999.9
2023-09-02T00:26:26.230Z,1999.9
2023-09-02T00:28:33.338Z,1999.9
2023-09-02T00:30:37.140Z,1999.9
2023-09-02T00:32:41.000Z,1999.9
2023-09-02T00:34:44.798Z,1999.9
2023-09-02T00:36:48.575Z,1999.9
2023-09-02T00:38:52.404Z,1999.9
2023-09-02T00:40:56.190Z,1999.9
2023-09-02T00:43:03.273Z,1999.9
2023-09-02T00:45:07.068Z,1999.9
2023-09-02T00:47:10.878Z,1999.9
2023-09-02T00:49:14.644Z,1999.9
2023-09-02T00:51:18.473Z,1999.9
2023-09-02T00:55:26.114Z,1999.9
2023-09-02T00:57:33.147Z,1999.9
2023-09-02T00:59:36.963Z,1999.9
2023-09-02T01:01:40.785Z,1999.9
2023-09-02T01:03:44.732Z,1999.9
2023-09-02T01:05:48.388Z,1999.9
2023-09-02T01:07:52.201Z,1999.9
2023-09-02T01:09:56.000Z,1999.9
2023-09-02T01:12:03.073Z,1999.9
2023-09-02T01:14:06.884Z,1999.9
2023-09-02T01:20:37.145Z,1999.9
2023-09-02T01:22:40.947Z,1999.9
2023-09-02T01:24:48.021Z,1999.9
2023-09-02T01:26:51.811Z,1999.9
2023-09-02T01:28:55.633Z,1999.9
2023-09-02T01:30:59.443Z,1999.9
2023-09-02T01:41:21.699Z,1999.9
2023-09-02T01:47:33.114Z,1999.9
2023-09-02T01:49:36.924Z,1999.9
2023-09-02T01:53:47.827Z,1999.9
2023-09-02T01:55:51.631Z,1999.9
2023-09-02T01:57:55.454Z,1999.9
2023-09-02T01:59:59.238Z,1999.9
2023-09-02T02:02:03.043Z,1999.9
2023-09-02T02:04:06.884Z,1999.9
2023-09-02T02:06:10.676Z,1999.9
2023-09-02T02:08:17.776Z,1999.9
2023-09-02T02:10:21.583Z,1999.9
2023-09-02T02:12:25.345Z,1999.9
2023-09-02T02:13:28.893Z,1999.9
2023-09-02T02:15:32.687Z,1999.9
2023-09-02T02:30:02.595Z,1999.9
2023-09-02T02:32:06.390Z,1999.9
2023-09-02T02:34:10.197Z,1999.9
2023-09-02T02:48:40.080Z,1999.9
2023-09-02T02:59:02.383Z,1999.9
2023-09-02T03:01:06.293Z,1999.9
2023-09-02T03:03:10.113Z,1999.9
2023-09-02T03:05:17.102Z,1999.9
2023-09-02T03:07:20.906Z,1999.9
2023-09-02T03:18:46.745Z,1999.9
2023-09-02T03:20:50.581Z,1999.9
2023-09-02T03:22:54.366Z,1999.9
2023-09-02T03:24:58.168Z,1999.9
2023-09-02T03:27:01.962Z,1999.9
2023-09-02T03:29:05.759Z,1999.9
2023-09-02T03:31:09.762Z,1999.9
2023-09-02T03:33:16.859Z,1999.9
2023-09-02T03:35:20.422Z,1999.9
2023-09-02T03:37:24.254Z,1999.9
2023-09-02T03:39:28.058Z,1999.9
2023-09-02T03:43:35.665Z,1999.9
2023-09-02T03:47:46.720Z,1999.9
2023-09-02T03:49:50.394Z,1999.9
2023-09-02T03:51:54.184Z,1999.9
2023-09-02T03:53:57.991Z,1999.9
2023-09-02T03:56:01.828Z,1999.9
2023-09-02T03:58:05.598Z,1999.9
2023-09-02T04:00:09.415Z,1999.9
2023-09-02T04:02:16.508Z,1999.9
2023-09-02T04:04:20.295Z,1999.9
2023-09-02T04:07:27.658Z,1999.9
2023-09-02T04:09:31.482Z,1999.9
2023-09-02T04:21:57.606Z,1999.9
2023-09-02T04:30:16.118Z,1999.9
2023-09-02T04:32:19.965Z,1999.9
2023-09-02T04:34:23.760Z,1999.9
2023-09-02T04:36:27.538Z,1999.9
2023-09-02T04:38:31.359Z,1999.9
2023-09-02T04:42:38.991Z,1999.9
2023-09-02T04:44:46.099Z,1999.9
2023-09-02T04:46:49.903Z,1999.9
2023-09-02T04:48:53.704Z,1999.9
2023-09-02T04:50:57.522Z,1999.9
2023-09-02T04:53:01.402Z,1999.9
2023-09-02T04:55:05.126Z,1999.9
2023-09-02T04:57:10.587Z,1999.9
2023-09-02T04:59:17.625Z,1999.9
2023-09-02T05:01:21.439Z,1999.9
2023-09-02T05:05:50.083Z,1690.5
2023-09-02T05:07:53.772Z,1999.9
2023-09-02T05:09:57.557Z,1999.9
2023-09-02T05:12:04.639Z,1999.9
2023-09-02T05:16:12.341Z,1999.9
2023-09-02T05:20:19.890Z,1999.9
2023-09-02T05:30:42.260Z,1999.9
2023-09-02T05:32:46.057Z,1999.9
2023-09-02T05:34:49.837Z,1999.9
2023-09-02T05:36:53.653Z,1999.9
2023-09-02T05:38:57.464Z,1999.9
2023-09-02T05:41:04.532Z,1999.9
2023-09-02T05:43:08.346Z,1999.9
2023-09-02T05:47:15.956Z,1999.9
2023-09-02T05:49:19.768Z,1999.9
2023-09-02T05:51:23.564Z,1999.9
2023-09-02T05:53:27.423Z,1353.8
2023-09-02T05:55:34.482Z,1999.9
2023-09-02T05:57:38.298Z,1999.9
2023-09-02T05:59:42.095Z,1999.9
2023-09-02T06:00:45.651Z,1351.5
2023-09-02T06:04:53.256Z,1349.3
2023-09-02T06:06:57.078Z,1999.9
2023-09-02T06:11:08.184Z,1999.9
2023-09-02T06:13:11.751Z,1999.9
2023-09-02T06:15:15.553Z,1999.9
2023-09-02T06:19:23.133Z,1338.3
2023-09-02T06:21:26.921Z,1999.9
2023-09-02T06:33:52.997Z,1999.9
2023-09-02T06:38:03.886Z,1999.9
2023-09-02T06:42:11.534Z,1999.9
2023-09-02T06:50:26.785Z,1376.2
2023-09-02T06:54:37.625Z,1999.9
2023-09-02T06:56:41.432Z,1385.2
2023-09-02T07:03:56.600Z,1999.9
2023-09-02T07:06:03.446Z,1385.3
2023-09-02T07:12:14.843Z,1999.9
2023-09-02T07:14:18.632Z,1999.9
2023-09-02T07:16:22.507Z,1999.9
2023-09-02T07:18:26.261Z,1376.8
2023-09-02T07:20:33.330Z,799.8
2023-09-02T07:22:37.139Z,1386.9
2023-09-02T07:24:40.928Z,1377.1
2023-09-02T07:26:44.731Z,1373.8
2023-09-02T07:30:52.347Z,1384.4
2023-09-02T07:35:03.196Z,793.9
2023-09-02T07:37:06.996Z,1392.7
2023-09-02T07:41:14.912Z,1372.2
2023-09-02T07:43:18.564Z,1391.5
2023-09-02T07:45:22.186Z,471.9
2023-09-02T07:51:36.766Z,510.7
2023-09-02T07:53:40.556Z,483.4
2023-09-02T07:54:44.099Z,489.9
2023-09-02T07:58:51.658Z,445.5
2023-09-02T08:03:02.559Z,464.3
2023-09-02T08:05:06.298Z,472.6
2023-09-02T08:07:10.090Z,491.6
2023-09-02T08:09:13.868Z,1422.3
2023-09-02T08:11:17.682Z,1999.9
2023-09-02T08:13:21.460Z,1999.9
2023-09-02T08:15:25.230Z,1999.9
2023-09-02T08:17:32.310Z,1999.9
2023-09-02T08:19:36.085Z,1999.9
2023-09-02T08:23:43.675Z,1999.9
2023-09-02T08:25:47.434Z,1999.9
2023-09-02T08:27:51.255Z,1999.9
2023-09-02T08:29:54.975Z,1999.9
2023-09-02T08:32:02.062Z,1999.9
2023-09-02T08:34:05.842Z,1999.9
2023-09-02T08:36:09.617Z,1999.9
2023-09-02T08:38:13.392Z,1999.9
2023-09-02T08:40:17.159Z,1999.9
2023-09-02T08:42:22.041Z,1999.9
2023-09-02T08:44:24.730Z,1999.9
2023-09-02T08:46:31.805Z,1999.9
2023-09-02T08:48:35.608Z,1999.9
2023-09-02T08:50:39.362Z,1999.9
2023-09-02T08:53:04.440Z,1999.9
2023-09-02T08:55:10.011Z,1999.9
2023-09-02T08:57:12.001Z,1999.9
2023-09-02T08:59:19.042Z,1999.9
2023-09-02T09:01:22.862Z,1999.9
2023-09-02T09:05:30.361Z,1999.9
2023-09-02T09:07:34.143Z,1999.9
2023-09-02T09:11:41.671Z,1999.9
2023-09-02T09:13:48.747Z,1999.9
2023-09-02T09:17:56.332Z,1999.9
2023-09-02T09:26:11.454Z,1999.9
2023-09-02T09:28:18.425Z,1999.9
2023-09-02T09:30:22.241Z,1999.9
2023-09-02T09:32:25.986Z,1999.9
2023-09-02T09:34:29.732Z,1999.9
2023-09-02T09:36:33.530Z,1999.9
2023-09-02T09:38:37.262Z,1999.9
2023-09-02T09:47:59.201Z,1999.9
2023-09-02T09:50:02.979Z,1999.9
2023-09-02T09:52:06.727Z,1999.9
2023-09-02T09:54:10.499Z,1999.9
2023-09-02T09:56:17.581Z,1999.9
2023-09-02T09:58:21.343Z,1999.9
2023-09-02T10:00:25.089Z,1999.9
2023-09-02T10:02:28.936Z,1999.9
2023-09-02T10:04:32.643Z,1999.9
2023-09-02T10:06:36.418Z,1999.9
2023-09-02T10:08:40.177Z,1999.9
2023-09-02T10:10:47.226Z,1999.9
2023-09-02T10:12:51.008Z,1999.9
2023-09-02T10:14:54.806Z,1999.9
2023-09-02T10:16:58.575Z,1999.9
2023-09-02T10:19:02.362Z,1999.9
2023-09-02T10:21:06.126Z,1999.9
2023-09-02T10:23:09.903Z,1999.9
2023-09-02T10:27:20.722Z,1999.9
2023-09-02T10:29:24.469Z,1999.9
2023-09-02T10:33:32.002Z,1999.9
2023-09-02T10:39:46.643Z,1999.9
2023-09-02T10:41:50.402Z,1999.9
2023-09-02T10:43:54.192Z,1999.9
2023-09-02T10:51:09.007Z,1999.9
2023-09-02T10:55:21.413Z,1999.9
2023-09-02T10:57:25.180Z,1999.9
2023-09-02T10:59:28.948Z,1999.9
2023-09-02T11:22:16.872Z,1999.9
2023-09-02T11:24:20.669Z,1999.9
2023-09-02T11:26:24.380Z,1999.9
2023-09-02T11:28:28.170Z,1999.9
2023-09-02T11:30:31.896Z,1999.9
2023-09-02T11:32:35.658Z,1999.9
2023-09-02T11:36:46.423Z,1999.9
2023-09-02T11:38:50.171Z,1999.9
2023-09-02T11:42:07.347Z,1999.9
2023-09-02T11:44:01.194Z,1999.9
2023-09-02T11:46:04.957Z,1999.9
2023-09-02T11:48:08.678Z,1999.9
2023-09-02T11:50:15.709Z,1999.9
2023-09-02T11:52:19.417Z,1999.9
2023-09-02T11:54:23.192Z,1999.9
2023-09-02T11:56:26.891Z,1999.9
2023-09-02T11:58:30.646Z,1999.9
2023-09-02T12:00:34.394Z,1999.9
2023-09-02T12:02:38.226Z,1999.9
2023-09-02T12:04:45.159Z,1999.9
2023-09-02T12:06:48.899Z,1999.9
2023-09-02T12:08:52.627Z,1999.9
2023-09-02T12:10:56.339Z,1999.9
2023-09-02T12:13:00.091Z,1999.9
2023-09-02T12:15:03.832Z,1999.9
2023-09-02T12:17:07.654Z,1999.9
2023-09-02T12:19:14.570Z,1999.9
2023-09-02T12:23:22.083Z,1999.9
2023-09-02T12:27:29.493Z,1999.9
2023-09-02T12:29:33.244Z,1999.9
2023-09-02T12:31:36.925Z,1999.9
2023-09-02T12:33:44.011Z,1999.9
2023-09-02T12:35:47.711Z,1999.9
2023-09-02T12:37:51.502Z,1999.9
2023-09-02T12:42:20.106Z,1999.9
2023-09-02T12:44:23.790Z,1999.9
2023-09-02T12:50:39.919Z,1999.9
2023-09-02T13:05:07.666Z,1999.9
2023-09-02T13:11:18.864Z,1999.9
2023-09-02T13:13:22.605Z,1999.9
2023-09-02T13:15:29.621Z,1999.9
2023-09-02T13:23:44.535Z,1999.9
2023-09-02T13:25:49.941Z,1999.9
2023-09-02T13:27:51.991Z,1999.9
2023-09-02T13:29:58.966Z,1999.9
2023-09-02T13:32:02.726Z,1999.9
2023-09-02T13:34:06.427Z,1999.9
2023-09-02T13:35:09.987Z,1999.9
2023-09-02T13:41:21.144Z,1999.9
2023-09-02T13:45:31.919Z,1999.9
2023-09-02T13:47:35.657Z,1999.9
2023-09-02T13:53:46.770Z,1999.9
2023-09-02T13:55:50.491Z,1999.9
2023-09-02T13:57:57.516Z,1999.9
2023-09-02T14:02:04.962Z,1999.9
2023-09-02T14:04:08.690Z,1999.9
2023-09-02T14:06:12.392Z,1999.9
2023-09-02T14:08:16.111Z,1999.9
2023-09-02T14:10:19.800Z,1999.9
2023-09-02T14:14:30.560Z,1999.9
2023-09-02T14:16:34.323Z,1999.9
2023-09-02T14:18:38.022Z,1999.9
2023-09-02T14:28:59.806Z,1999.9
2023-09-02T14:32:07.012Z,1999.9
2023-09-02T14:34:10.729Z,1999.9
2023-09-02T14:36:14.398Z,1999.9
2023-09-02T14:38:19.639Z,1999.9
2023-09-02T14:40:25.115Z,1999.9
2023-09-02T14:42:28.801Z,1999.9
2023-09-02T14:44:32.543Z,1999.9
2023-09-02T14:46:36.286Z,1999.9
2023-09-02T14:48:39.949Z,1999.9
2023-09-02T14:54:54.389Z,1999.9
2023-09-02T14:56:58.130Z,1999.9
2023-09-02T14:59:01.806Z,1999.9
2023-09-02T15:01:05.544Z,1999.9
2023-09-02T15:03:09.285Z,1999.9
2023-09-02T15:05:12.946Z,1999.9
2023-09-02T15:09:24.726Z,1999.9
2023-09-02T15:11:27.385Z,1999.9
2023-09-02T15:13:31.118Z,1999.9
2023-09-02T15:15:34.824Z,1999.9
2023-09-02T15:17:38.568Z,1999.9
2023-09-02T15:19:42.285Z,1999.9
2023-09-02T15:21:45.972Z,1999.9
2023-09-02T15:23:52.976Z,1999.9
2023-09-02T15:29:03.911Z,1999.9
2023-09-02T15:31:07.642Z,1999.9
2023-09-02T15:33:11.505Z,1999.9
2023-09-02T15:37:22.051Z,1999.9
2023-09-02T15:39:25.753Z,1999.9
2023-09-02T15:41:29.459Z,1999.9
2023-09-02T15:45:36.905Z,1999.9
2023-09-02T15:47:40.636Z,1999.9
2023-09-02T15:55:58.754Z,1999.9
2023-09-02T15:58:02.440Z,1999.9
2023-09-02T16:00:06.183Z,1999.9
2023-09-02T16:02:09.897Z,1999.9
2023-09-02T16:06:20.597Z,1999.9
2023-09-02T16:08:24.310Z,1999.9
2023-09-02T16:10:28.033Z,1999.9
2023-09-02T16:12:31.730Z,1999.9
2023-09-02T16:14:35.451Z,1999.9
2023-09-02T16:16:39.164Z,1999.9
2023-09-02T16:18:42.871Z,1999.9
2023-09-02T16:24:57.562Z,1999.9
2023-09-02T16:27:22.446Z,1999.9
2023-09-02T16:29:26.180Z,1999.9
2023-09-02T16:31:29.938Z,1999.9
2023-09-02T16:33:36.944Z,1999.9
2023-09-02T16:35:40.659Z,1999.9
2023-09-02T16:37:44.437Z,1999.9
2023-09-02T16:39:48.106Z,1999.9
2023-09-02T16:44:05.017Z,1999.9
2023-09-02T16:45:59.290Z,1999.9
2023-09-02T16:48:10.080Z,1999.9
2023-09-02T16:50:11.632Z,1999.9
2023-09-02T16:52:15.326Z,1999.9
2023-09-02T16:54:19.068Z,1999.9
2023-09-02T16:56:22.805Z,1999.9
2023-09-02T16:58:26.517Z,1999.9
2023-09-02T17:02:37.294Z,1999.9
2023-09-02T17:04:41.004Z,1999.9
2023-09-02T17:06:44.727Z,1999.9
2023-09-02T17:08:48.429Z,1999.9
2023-09-02T17:10:52.155Z,1999.9
2023-09-02T17:12:55.897Z,1999.9
2023-09-02T17:14:59.830Z,1999.9
2023-09-02T17:17:06.672Z,1999.9
2023-09-02T17:21:14.117Z,1999.9
2023-09-02T17:22:17.625Z,1999.9
2023-09-02T17:24:21.370Z,1999.9
2023-09-02T17:26:25.099Z,1999.9
2023-09-02T17:30:35.888Z,1999.9
2023-09-02T17:32:39.627Z,1999.9
2023-09-02T17:38:50.839Z,1999.9
2023-09-02T17:51:16.631Z,1999.9
2023-09-02T17:57:27.896Z,1999.9
2023-09-02T18:11:57.460Z,1999.9
2023-09-02T18:14:04.544Z,1999.9
2023-09-02T18:16:08.378Z,1999.9
2023-09-02T18:21:19.397Z,1999.9
2023-09-02T18:23:23.125Z,1999.9
2023-09-02T18:25:26.909Z,1999.9
2023-09-02T18:27:33.961Z,1999.9
2023-09-02T18:29:37.879Z,1999.9
2023-09-02T18:31:41.548Z,1999.9
2023-09-02T18:33:45.282Z,1999.9
2023-09-02T18:35:49.050Z,1999.9
2023-09-02T18:37:52.844Z,1999.9
2023-09-02T18:42:03.629Z,1999.9
2023-09-02T18:44:07.406Z,1999.9
2023-09-02T18:46:11.171Z,1999.9
2023-09-02T18:48:14.940Z,1999.9
2023-09-02T18:50:18.716Z,1999.9
2023-09-02T18:52:22.651Z,1999.9
2023-09-02T18:54:26.244Z,1999.9
2023-09-02T18:56:33.287Z,1999.9
2023-09-02T19:00:40.884Z,1999.9
2023-09-02T19:02:44.677Z,1999.9
2023-09-02T19:04:48.474Z,1999.9
2023-09-02T19:11:03.005Z,1999.9
2023-09-02T19:13:06.801Z,1999.9
2023-09-02T19:16:14.146Z,1999.9
2023-09-02T19:34:51.423Z,1999.9
2023-09-02T19:36:55.215Z,1999.9
2023-09-02T19:39:02.279Z,1999.9
2023-09-02T19:41:06.057Z,1999.9
2023-09-02T19:43:09.808Z,1999.9
2023-09-02T19:45:13.590Z,1999.9
2023-09-02T19:47:17.347Z,1999.9
2023-09-02T19:51:24.908Z,1999.9
2023-09-02T19:53:31.950Z,1999.9
2023-09-02T19:55:35.714Z,1999.9
2023-09-02T19:57:39.498Z,1999.9
2023-09-02T19:59:43.264Z,1999.9
2023-09-02T20:01:47.101Z,1999.9
2023-09-02T20:03:50.841Z,1999.9
2023-09-02T20:08:01.650Z,1999.9
2023-09-02T20:10:05.444Z,1999.9
2023-09-02T20:20:54.110Z,1999.9
2023-09-02T20:22:57.926Z,1999.9
2023-09-02T20:25:01.745Z,1999.9
2023-09-02T20:27:05.485Z,1999.9
2023-09-02T20:29:09.289Z,1999.9
2023-09-02T20:31:13.106Z,1999.9
2023-09-02T20:33:16.901Z,1999.9
2023-09-02T20:35:23.911Z,1999.9
2023-09-02T20:37:27.673Z,1999.9
2023-09-02T20:39:31.458Z,1999.9
2023-09-02T20:41:35.270Z,1999.9
2023-09-02T20:43:39.048Z,1999.9
2023-09-02T20:47:46.686Z,1999.9
2023-09-02T20:49:53.698Z,1999.9
2023-09-02T20:51:57.476Z,1999.9
2023-09-02T20:58:08.875Z,1999.9
2023-09-02T21:02:16.534Z,1999.9
2023-09-02T21:04:23.559Z,1999.9
2023-09-02T21:06:27.428Z,1999.9
2023-09-02T21:08:31.155Z,1999.9
2023-09-02T21:09:34.703Z,1999.9
2023-09-02T21:13:42.335Z,1999.9
2023-09-02T21:17:53.215Z,1999.9
2023-09-02T21:19:57.008Z,1999.9
2023-09-02T21:22:00.806Z,1999.9
2023-09-02T21:26:08.436Z,1999.9
2023-09-02T21:30:16.026Z,1999.9
2023-09-02T21:32:23.102Z,1999.9
2023-09-02T21:36:30.729Z,1999.9
2023-09-02T21:38:34.540Z,1999.9
2023-09-02T21:40:38.329Z,1999.9
2023-09-02T21:42:42.149Z,1999.9
2023-09-02T21:44:45.942Z,1999.9
2023-09-02T21:46:52.995Z,1999.9
2023-09-02T21:48:56.807Z,1999.9
2023-09-02T21:51:00.603Z,1999.9
2023-09-02T21:53:04.420Z,1999.9
2023-09-02T21:55:08.232Z,1999.9
2023-09-02T21:57:12.057Z,1999.9
2023-09-02T22:01:22.987Z,1999.9
2023-09-02T22:03:26.777Z,1999.9
2023-09-02T22:05:30.509Z,1999.9
2023-09-02T22:08:37.851Z,1999.9
2023-09-02T22:10:41.639Z,1999.9
2023-09-02T22:12:45.442Z,1999.9
2023-09-02T22:31:26.387Z,1999.9
2023-09-02T22:39:41.520Z,1999.9
2023-09-02T22:41:45.305Z,1999.9
2023-09-02T22:43:52.376Z,1999.9
2023-09-02T22:45:57.914Z,1999.9
2023-09-02T22:58:23.878Z,1999.9
2023-09-02T23:03:35.003Z,1999.9
2023-09-02T23:05:38.825Z,1999.9
2023-09-02T23:07:42.622Z,1999.9
2023-09-02T23:09:46.455Z,1999.9
2023-09-02T23:13:57.329Z,1999.9
2023-09-02T23:26:23.455Z,1999.9
2023-09-02T23:28:27.250Z,1999.9
2023-09-02T23:32:34.920Z,1999.9
2023-09-02T23:34:38.692Z,1999.9
2023-09-02T23:36:42.520Z,1999.9
2023-09-02T23:38:46.343Z,1999.9
2023-09-02T23:40:53.453Z,1999.9
2023-09-02T23:45:01.052Z,1999.9
2023-09-02T23:47:04.846Z,1999.9
2023-09-02T23:49:08.682Z,1999.9
2023-09-02T23:51:12.636Z,1999.9
2023-09-02T23:53:16.325Z,1999.9
2023-09-02T23:55:23.387Z,1999.9
2023-09-02T23:57:27.189Z,1999.9
2023-09-02T23:59:31.028Z,1999.9
